sensor_id;sensor_type;location;lat;lon;timestamp;P1;durP1;ratioP1;P2;durP2;ratioP2
47365;SDS011;33105;47.964;7.982;2024-01-30T00:02:12;2.42;;;1.20;;
47365;SDS011;33105;47.964;7.982;2024-01-30T00:05:14;2.15;;;1.10;;
47365;SDS011;33105;47.964;7.982;2024-01-30T00:08:15;2.03;;;1.17;;
47365;SDS011;33105;47.964;7.982;2024-01-30T00:11:16;2.50;;;1.27;;
47365;SDS011;33105;47.964;7.982;2024-01-30T00:14:17;3.40;;;1.30;;
47365;SDS011;33105;47.964;7.982;2024-01-30T00:17:18;2.88;;;1.10;;
47365;SDS011;33105;47.964;7.982;2024-01-30T00:20:21;2.63;;;1.40;;
47365;SDS011;33105;47.964;7.982;2024-01-30T00:23:22;1.33;;;1.10;;
47365;SDS011;33105;47.964;7.982;2024-01-30T00:26:23;4.13;;;1.20;;
47365;SDS011;33105;47.964;7.982;2024-01-30T00:29:25;3.13;;;1.08;;
47365;SDS011;33105;47.964;7.982;2024-01-30T00:32:30;1.98;;;1.23;;
47365;SDS011;33105;47.964;7.982;2024-01-30T00:35:31;1.83;;;1.13;;
47365;SDS011;33105;47.964;7.982;2024-01-30T00:38:32;2.72;;;1.25;;
47365;SDS011;33105;47.964;7.982;2024-01-30T00:41:34;2.05;;;1.35;;
47365;SDS011;33105;47.964;7.982;2024-01-30T00:44:35;3.95;;;1.20;;
47365;SDS011;33105;47.964;7.982;2024-01-30T00:47:39;1.98;;;1.20;;
47365;SDS011;33105;47.964;7.982;2024-01-30T00:50:40;3.70;;;1.23;;
47365;SDS011;33105;47.964;7.982;2024-01-30T00:53:41;2.90;;;1.30;;
47365;SDS011;33105;47.964;7.982;2024-01-30T00:56:42;6.10;;;1.25;;
47365;SDS011;33105;47.964;7.982;2024-01-30T00:59:43;2.30;;;1.13;;
47365;SDS011;33105;47.964;7.982;2024-01-30T01:02:45;1.63;;;1.20;;
47365;SDS011;33105;47.964;7.982;2024-01-30T01:05:46;1.70;;;1.35;;
47365;SDS011;33105;47.964;7.982;2024-01-30T01:08:47;3.50;;;1.20;;
47365;SDS011;33105;47.964;7.982;2024-01-30T01:11:48;2.38;;;1.27;;
47365;SDS011;33105;47.964;7.982;2024-01-30T01:14:49;3.33;;;1.90;;
47365;SDS011;33105;47.964;7.982;2024-01-30T01:17:50;2.00;;;1.38;;
47365;SDS011;33105;47.964;7.982;2024-01-30T01:20:52;2.13;;;1.30;;
47365;SDS011;33105;47.964;7.982;2024-01-30T01:23:53;4.93;;;1.50;;
47365;SDS011;33105;47.964;7.982;2024-01-30T01:26:54;2.65;;;1.35;;
47365;SDS011;33105;47.964;7.982;2024-01-30T01:29:56;3.47;;;1.75;;
47365;SDS011;33105;47.964;7.982;2024-01-30T01:32:57;1.65;;;1.05;;
47365;SDS011;33105;47.964;7.982;2024-01-30T01:36:01;4.68;;;1.40;;
47365;SDS011;33105;47.964;7.982;2024-01-30T01:39:03;2.28;;;1.05;;
47365;SDS011;33105;47.964;7.982;2024-01-30T01:42:04;2.17;;;1.50;;
47365;SDS011;33105;47.964;7.982;2024-01-30T01:45:08;2.45;;;1.10;;
47365;SDS011;33105;47.964;7.982;2024-01-30T01:49:05;1.45;;;0.93;;
47365;SDS011;33105;47.964;7.982;2024-01-30T01:52:06;4.07;;;1.30;;
47365;SDS011;33105;47.964;7.982;2024-01-30T01:55:08;2.05;;;1.10;;
47365;SDS011;33105;47.964;7.982;2024-01-30T01:58:13;1.70;;;1.20;;
47365;SDS011;33105;47.964;7.982;2024-01-30T02:01:16;2.70;;;1.10;;
47365;SDS011;33105;47.964;7.982;2024-01-30T02:04:20;2.10;;;1.20;;
47365;SDS011;33105;47.964;7.982;2024-01-30T02:07:21;2.08;;;1.27;;
47365;SDS011;33105;47.964;7.982;2024-01-30T02:10:23;6.47;;;1.75;;
47365;SDS011;33105;47.964;7.982;2024-01-30T02:13:24;4.65;;;1.45;;
47365;SDS011;33105;47.964;7.982;2024-01-30T02:16:25;2.30;;;1.45;;
47365;SDS011;33105;47.964;7.982;2024-01-30T02:19:28;1.60;;;1.00;;
47365;SDS011;33105;47.964;7.982;2024-01-30T02:22:29;1.42;;;1.10;;
47365;SDS011;33105;47.964;7.982;2024-01-30T02:25:31;1.67;;;1.13;;
47365;SDS011;33105;47.964;7.982;2024-01-30T02:28:34;2.97;;;1.10;;
47365;SDS011;33105;47.964;7.982;2024-01-30T02:31:35;4.45;;;1.40;;
47365;SDS011;33105;47.964;7.982;2024-01-30T02:34:36;2.28;;;1.25;;
47365;SDS011;33105;47.964;7.982;2024-01-30T02:37:38;2.10;;;1.30;;
47365;SDS011;33105;47.964;7.982;2024-01-30T02:40:39;2.25;;;1.35;;
47365;SDS011;33105;47.964;7.982;2024-01-30T02:43:40;2.85;;;1.40;;
47365;SDS011;33105;47.964;7.982;2024-01-30T02:46:41;1.70;;;1.20;;
47365;SDS011;33105;47.964;7.982;2024-01-30T02:49:42;3.10;;;1.42;;
47365;SDS011;33105;47.964;7.982;2024-01-30T02:52:44;3.13;;;1.30;;
47365;SDS011;33105;47.964;7.982;2024-01-30T02:55:45;2.00;;;1.17;;
47365;SDS011;33105;47.964;7.982;2024-01-30T02:58:46;3.00;;;1.40;;
47365;SDS011;33105;47.964;7.982;2024-01-30T03:01:47;4.00;;;1.30;;
47365;SDS011;33105;47.964;7.982;2024-01-30T03:04:49;1.13;;;1.00;;
47365;SDS011;33105;47.964;7.982;2024-01-30T03:07:50;3.60;;;1.30;;
47365;SDS011;33105;47.964;7.982;2024-01-30T03:10:51;4.90;;;1.40;;
47365;SDS011;33105;47.964;7.982;2024-01-30T03:13:52;2.95;;;1.27;;
47365;SDS011;33105;47.964;7.982;2024-01-30T03:16:53;2.38;;;1.38;;
47365;SDS011;33105;47.964;7.982;2024-01-30T03:19:54;2.67;;;1.35;;
47365;SDS011;33105;47.964;7.982;2024-01-30T03:22:55;2.10;;;1.35;;
47365;SDS011;33105;47.964;7.982;2024-01-30T03:25:57;2.22;;;1.17;;
47365;SDS011;33105;47.964;7.982;2024-01-30T03:28:58;2.67;;;1.60;;
47365;SDS011;33105;47.964;7.982;2024-01-30T03:31:59;3.28;;;1.88;;
47365;SDS011;33105;47.964;7.982;2024-01-30T03:35:00;2.55;;;1.33;;
47365;SDS011;33105;47.964;7.982;2024-01-30T03:38:01;2.42;;;1.25;;
47365;SDS011;33105;47.964;7.982;2024-01-30T03:41:03;2.60;;;1.30;;
47365;SDS011;33105;47.964;7.982;2024-01-30T03:44:05;2.72;;;1.73;;
47365;SDS011;33105;47.964;7.982;2024-01-30T03:47:07;2.63;;;1.40;;
47365;SDS011;33105;47.964;7.982;2024-01-30T03:50:08;3.28;;;1.58;;
47365;SDS011;33105;47.964;7.982;2024-01-30T03:53:09;5.15;;;1.48;;
47365;SDS011;33105;47.964;7.982;2024-01-30T03:56:10;2.10;;;1.70;;
47365;SDS011;33105;47.964;7.982;2024-01-30T03:59:21;3.28;;;1.63;;
47365;SDS011;33105;47.964;7.982;2024-01-30T04:08:02;4.13;;;1.90;;
47365;SDS011;33105;47.964;7.982;2024-01-30T04:16:33;3.33;;;1.50;;
47365;SDS011;33105;47.964;7.982;2024-01-30T04:24:29;2.42;;;1.38;;
47365;SDS011;33105;47.964;7.982;2024-01-30T04:27:36;3.22;;;1.40;;
47365;SDS011;33105;47.964;7.982;2024-01-30T04:30:38;2.58;;;1.30;;
47365;SDS011;33105;47.964;7.982;2024-01-30T04:33:39;2.92;;;1.52;;
47365;SDS011;33105;47.964;7.982;2024-01-30T04:36:43;2.50;;;1.42;;
47365;SDS011;33105;47.964;7.982;2024-01-30T04:39:46;2.63;;;1.42;;
47365;SDS011;33105;47.964;7.982;2024-01-30T04:43:27;3.30;;;1.30;;
47365;SDS011;33105;47.964;7.982;2024-01-30T04:47:39;2.42;;;1.42;;
47365;SDS011;33105;47.964;7.982;2024-01-30T04:50:48;1.83;;;1.20;;
47365;SDS011;33105;47.964;7.982;2024-01-30T04:54:03;4.03;;;1.42;;
47365;SDS011;33105;47.964;7.982;2024-01-30T04:57:07;3.92;;;1.42;;
47365;SDS011;33105;47.964;7.982;2024-01-30T05:00:25;1.60;;;1.10;;
47365;SDS011;33105;47.964;7.982;2024-01-30T05:07:32;3.45;;;1.30;;
47365;SDS011;33105;47.964;7.982;2024-01-30T05:26:32;2.00;;;1.27;;
47365;SDS011;33105;47.964;7.982;2024-01-30T05:34:33;2.20;;;1.58;;
47365;SDS011;33105;47.964;7.982;2024-01-30T05:37:34;4.82;;;1.35;;
47365;SDS011;33105;47.964;7.982;2024-01-30T05:56:18;2.47;;;1.25;;
47365;SDS011;33105;47.964;7.982;2024-01-30T06:04:20;3.28;;;1.77;;
47365;SDS011;33105;47.964;7.982;2024-01-30T06:16:54;7.97;;;2.60;;
47365;SDS011;33105;47.964;7.982;2024-01-30T06:19:56;6.25;;;3.45;;
47365;SDS011;33105;47.964;7.982;2024-01-30T06:30:25;6.90;;;1.90;;
47365;SDS011;33105;47.964;7.982;2024-01-30T06:33:41;19.75;;;11.13;;
47365;SDS011;33105;47.964;7.982;2024-01-30T06:37:49;4.97;;;2.63;;
47365;SDS011;33105;47.964;7.982;2024-01-30T06:41:20;4.22;;;2.28;;
47365;SDS011;33105;47.964;7.982;2024-01-30T06:44:22;4.85;;;2.88;;
47365;SDS011;33105;47.964;7.982;2024-01-30T06:47:24;3.63;;;2.45;;
47365;SDS011;33105;47.964;7.982;2024-01-30T06:50:25;5.60;;;3.28;;
47365;SDS011;33105;47.964;7.982;2024-01-30T06:53:38;6.88;;;5.07;;
47365;SDS011;33105;47.964;7.982;2024-01-30T06:56:51;4.78;;;2.42;;
47365;SDS011;33105;47.964;7.982;2024-01-30T07:07:56;8.05;;;2.50;;
47365;SDS011;33105;47.964;7.982;2024-01-30T07:10:57;4.22;;;1.67;;
47365;SDS011;33105;47.964;7.982;2024-01-30T07:13:59;3.95;;;2.10;;
47365;SDS011;33105;47.964;7.982;2024-01-30T07:17:00;3.40;;;1.95;;
47365;SDS011;33105;47.964;7.982;2024-01-30T07:20:04;7.60;;;2.00;;
47365;SDS011;33105;47.964;7.982;2024-01-30T07:23:27;3.97;;;1.73;;
47365;SDS011;33105;47.964;7.982;2024-01-30T07:26:30;3.92;;;2.03;;
47365;SDS011;33105;47.964;7.982;2024-01-30T07:29:31;3.35;;;1.92;;
47365;SDS011;33105;47.964;7.982;2024-01-30T07:37:31;3.00;;;1.50;;
47365;SDS011;33105;47.964;7.982;2024-01-30T07:40:32;3.20;;;1.90;;
47365;SDS011;33105;47.964;7.982;2024-01-30T07:43:34;7.60;;;2.40;;
47365;SDS011;33105;47.964;7.982;2024-01-30T07:46:35;2.88;;;2.03;;
47365;SDS011;33105;47.964;7.982;2024-01-30T07:49:36;2.08;;;1.75;;
47365;SDS011;33105;47.964;7.982;2024-01-30T07:52:38;3.25;;;1.88;;
47365;SDS011;33105;47.964;7.982;2024-01-30T07:55:40;3.22;;;2.20;;
47365;SDS011;33105;47.964;7.982;2024-01-30T07:58:42;5.05;;;2.10;;
47365;SDS011;33105;47.964;7.982;2024-01-30T08:01:43;3.22;;;1.80;;
47365;SDS011;33105;47.964;7.982;2024-01-30T08:04:44;7.88;;;2.20;;
47365;SDS011;33105;47.964;7.982;2024-01-30T08:07:49;8.50;;;1.80;;
47365;SDS011;33105;47.964;7.982;2024-01-30T08:10:51;4.40;;;2.03;;
47365;SDS011;33105;47.964;7.982;2024-01-30T08:13:53;5.00;;;2.20;;
47365;SDS011;33105;47.964;7.982;2024-01-30T08:16:54;6.07;;;2.20;;
47365;SDS011;33105;47.964;7.982;2024-01-30T08:19:56;5.25;;;2.38;;
47365;SDS011;33105;47.964;7.982;2024-01-30T08:22:57;4.22;;;2.03;;
47365;SDS011;33105;47.964;7.982;2024-01-30T08:25:58;6.20;;;2.20;;
47365;SDS011;33105;47.964;7.982;2024-01-30T08:28:59;7.13;;;2.20;;
47365;SDS011;33105;47.964;7.982;2024-01-30T08:32:01;5.55;;;2.05;;
47365;SDS011;33105;47.964;7.982;2024-01-30T08:35:02;4.28;;;2.22;;
47365;SDS011;33105;47.964;7.982;2024-01-30T08:38:04;3.85;;;2.35;;
47365;SDS011;33105;47.964;7.982;2024-01-30T08:41:05;4.88;;;2.20;;
47365;SDS011;33105;47.964;7.982;2024-01-30T08:44:08;3.30;;;2.30;;
47365;SDS011;33105;47.964;7.982;2024-01-30T08:47:11;5.10;;;2.35;;
47365;SDS011;33105;47.964;7.982;2024-01-30T08:50:12;6.53;;;2.05;;
47365;SDS011;33105;47.964;7.982;2024-01-30T08:53:14;6.30;;;2.22;;
47365;SDS011;33105;47.964;7.982;2024-01-30T08:56:15;3.85;;;2.33;;
47365;SDS011;33105;47.964;7.982;2024-01-30T08:59:17;4.70;;;2.20;;
47365;SDS011;33105;47.964;7.982;2024-01-30T09:02:18;7.47;;;2.50;;
47365;SDS011;33105;47.964;7.982;2024-01-30T09:05:19;4.88;;;2.55;;
47365;SDS011;33105;47.964;7.982;2024-01-30T09:08:20;6.00;;;2.75;;
47365;SDS011;33105;47.964;7.982;2024-01-30T09:11:22;7.78;;;2.92;;
47365;SDS011;33105;47.964;7.982;2024-01-30T09:14:23;9.15;;;3.13;;
47365;SDS011;33105;47.964;7.982;2024-01-30T09:17:24;10.48;;;2.33;;
47365;SDS011;33105;47.964;7.982;2024-01-30T09:20:25;6.68;;;2.42;;
47365;SDS011;33105;47.964;7.982;2024-01-30T09:23:29;4.47;;;2.90;;
47365;SDS011;33105;47.964;7.982;2024-01-30T09:26:30;6.88;;;2.75;;
47365;SDS011;33105;47.964;7.982;2024-01-30T09:29:32;5.70;;;2.38;;
47365;SDS011;33105;47.964;7.982;2024-01-30T09:32:35;6.55;;;2.80;;
47365;SDS011;33105;47.964;7.982;2024-01-30T09:35:36;6.68;;;3.63;;
47365;SDS011;33105;47.964;7.982;2024-01-30T09:38:37;8.85;;;3.80;;
47365;SDS011;33105;47.964;7.982;2024-01-30T09:41:44;11.85;;;3.55;;
47365;SDS011;33105;47.964;7.982;2024-01-30T09:44:49;4.70;;;2.65;;
47365;SDS011;33105;47.964;7.982;2024-01-30T09:47:53;6.40;;;2.72;;
47365;SDS011;33105;47.964;7.982;2024-01-30T09:50:54;5.85;;;2.38;;
47365;SDS011;33105;47.964;7.982;2024-01-30T09:53:57;6.45;;;2.10;;
47365;SDS011;33105;47.964;7.982;2024-01-30T09:56:58;4.10;;;2.55;;
47365;SDS011;33105;47.964;7.982;2024-01-30T10:00:00;4.72;;;2.50;;
47365;SDS011;33105;47.964;7.982;2024-01-30T10:03:01;8.93;;;2.97;;
47365;SDS011;33105;47.964;7.982;2024-01-30T10:06:02;7.47;;;2.95;;
47365;SDS011;33105;47.964;7.982;2024-01-30T10:09:04;6.07;;;2.78;;
47365;SDS011;33105;47.964;7.982;2024-01-30T10:12:05;6.43;;;2.63;;
47365;SDS011;33105;47.964;7.982;2024-01-30T10:15:07;6.13;;;3.40;;
47365;SDS011;33105;47.964;7.982;2024-01-30T10:18:09;8.75;;;3.55;;
47365;SDS011;33105;47.964;7.982;2024-01-30T10:21:11;8.25;;;2.90;;
47365;SDS011;33105;47.964;7.982;2024-01-30T10:24:12;5.55;;;2.65;;
47365;SDS011;33105;47.964;7.982;2024-01-30T10:27:14;7.47;;;2.95;;
47365;SDS011;33105;47.964;7.982;2024-01-30T10:30:16;5.25;;;2.35;;
47365;SDS011;33105;47.964;7.982;2024-01-30T10:33:17;6.03;;;2.30;;
47365;SDS011;33105;47.964;7.982;2024-01-30T10:36:18;4.57;;;2.45;;
47365;SDS011;33105;47.964;7.982;2024-01-30T10:39:25;6.43;;;3.55;;
47365;SDS011;33105;47.964;7.982;2024-01-30T10:42:36;10.75;;;4.82;;
47365;SDS011;33105;47.964;7.982;2024-01-30T10:45:37;15.18;;;7.03;;
47365;SDS011;33105;47.964;7.982;2024-01-30T10:48:42;10.38;;;5.40;;
47365;SDS011;33105;47.964;7.982;2024-01-30T10:51:45;7.45;;;4.35;;
47365;SDS011;33105;47.964;7.982;2024-01-30T10:54:48;9.02;;;4.00;;
47365;SDS011;33105;47.964;7.982;2024-01-30T10:57:51;14.02;;;4.30;;
47365;SDS011;33105;47.964;7.982;2024-01-30T11:00:54;9.05;;;4.15;;
47365;SDS011;33105;47.964;7.982;2024-01-30T11:03:56;9.25;;;4.25;;
47365;SDS011;33105;47.964;7.982;2024-01-30T11:06:57;8.25;;;4.30;;
47365;SDS011;33105;47.964;7.982;2024-01-30T11:13:09;7.35;;;4.28;;
47365;SDS011;33105;47.964;7.982;2024-01-30T11:16:11;8.40;;;3.83;;
47365;SDS011;33105;47.964;7.982;2024-01-30T11:19:15;5.50;;;2.97;;
47365;SDS011;33105;47.964;7.982;2024-01-30T11:22:19;4.63;;;2.80;;
47365;SDS011;33105;47.964;7.982;2024-01-30T11:25:22;4.28;;;2.72;;
47365;SDS011;33105;47.964;7.982;2024-01-30T11:28:24;5.28;;;3.33;;
47365;SDS011;33105;47.964;7.982;2024-01-30T11:31:25;6.10;;;2.47;;
47365;SDS011;33105;47.964;7.982;2024-01-30T11:34:26;7.57;;;3.10;;
47365;SDS011;33105;47.964;7.982;2024-01-30T11:37:27;4.53;;;2.80;;
47365;SDS011;33105;47.964;7.982;2024-01-30T11:40:32;2.97;;;2.45;;
47365;SDS011;33105;47.964;7.982;2024-01-30T11:43:34;5.40;;;2.70;;
47365;SDS011;33105;47.964;7.982;2024-01-30T11:46:35;5.45;;;2.88;;
47365;SDS011;33105;47.964;7.982;2024-01-30T11:49:37;5.50;;;2.83;;
47365;SDS011;33105;47.964;7.982;2024-01-30T11:52:38;6.88;;;3.00;;
47365;SDS011;33105;47.964;7.982;2024-01-30T11:55:40;5.30;;;3.17;;
47365;SDS011;33105;47.964;7.982;2024-01-30T11:58:44;4.47;;;3.17;;
47365;SDS011;33105;47.964;7.982;2024-01-30T12:01:46;5.20;;;3.13;;
47365;SDS011;33105;47.964;7.982;2024-01-30T12:04:47;3.92;;;2.67;;
47365;SDS011;33105;47.964;7.982;2024-01-30T12:07:48;6.35;;;2.80;;
47365;SDS011;33105;47.964;7.982;2024-01-30T12:10:56;3.72;;;2.70;;
47365;SDS011;33105;47.964;7.982;2024-01-30T12:17:00;3.90;;;2.20;;
47365;SDS011;33105;47.964;7.982;2024-01-30T12:20:06;3.92;;;2.70;;
47365;SDS011;33105;47.964;7.982;2024-01-30T12:23:12;8.25;;;2.78;;
47365;SDS011;33105;47.964;7.982;2024-01-30T12:26:14;4.95;;;2.75;;
47365;SDS011;33105;47.964;7.982;2024-01-30T12:29:15;5.05;;;2.58;;
47365;SDS011;33105;47.964;7.982;2024-01-30T12:32:16;3.72;;;2.42;;
47365;SDS011;33105;47.964;7.982;2024-01-30T12:35:18;7.13;;;5.03;;
47365;SDS011;33105;47.964;7.982;2024-01-30T12:38:21;5.80;;;2.95;;
47365;SDS011;33105;47.964;7.982;2024-01-30T12:41:22;4.18;;;2.15;;
47365;SDS011;33105;47.964;7.982;2024-01-30T12:44:29;5.75;;;2.40;;
47365;SDS011;33105;47.964;7.982;2024-01-30T12:47:30;3.13;;;1.77;;
47365;SDS011;33105;47.964;7.982;2024-01-30T12:50:32;5.35;;;1.90;;
47365;SDS011;33105;47.964;7.982;2024-01-30T12:53:33;4.35;;;2.10;;
47365;SDS011;33105;47.964;7.982;2024-01-30T12:56:34;2.67;;;2.08;;
47365;SDS011;33105;47.964;7.982;2024-01-30T12:59:36;3.97;;;1.75;;
47365;SDS011;33105;47.964;7.982;2024-01-30T13:02:37;6.82;;;2.50;;
47365;SDS011;33105;47.964;7.982;2024-01-30T13:05:38;8.88;;;4.30;;
47365;SDS011;33105;47.964;7.982;2024-01-30T13:08:49;18.55;;;13.30;;
47365;SDS011;33105;47.964;7.982;2024-01-30T13:11:57;6.40;;;2.10;;
47365;SDS011;33105;47.964;7.982;2024-01-30T13:14:59;3.45;;;1.98;;
47365;SDS011;33105;47.964;7.982;2024-01-30T13:18:06;4.57;;;1.90;;
47365;SDS011;33105;47.964;7.982;2024-01-30T13:21:07;4.43;;;2.13;;
47365;SDS011;33105;47.964;7.982;2024-01-30T13:24:08;3.53;;;2.10;;
47365;SDS011;33105;47.964;7.982;2024-01-30T13:27:13;3.42;;;1.75;;
47365;SDS011;33105;47.964;7.982;2024-01-30T13:30:18;2.35;;;1.80;;
47365;SDS011;33105;47.964;7.982;2024-01-30T13:33:30;4.18;;;1.92;;
47365;SDS011;33105;47.964;7.982;2024-01-30T13:36:46;5.18;;;2.20;;
47365;SDS011;33105;47.964;7.982;2024-01-30T13:39:59;3.38;;;2.03;;
47365;SDS011;33105;47.964;7.982;2024-01-30T13:43:13;2.45;;;1.77;;
47365;SDS011;33105;47.964;7.982;2024-01-30T13:46:30;3.65;;;2.15;;
47365;SDS011;33105;47.964;7.982;2024-01-30T13:49:42;4.63;;;2.00;;
47365;SDS011;33105;47.964;7.982;2024-01-30T13:52:49;3.47;;;2.10;;
47365;SDS011;33105;47.964;7.982;2024-01-30T13:55:50;4.15;;;1.90;;
47365;SDS011;33105;47.964;7.982;2024-01-30T13:59:04;4.78;;;2.08;;
47365;SDS011;33105;47.964;7.982;2024-01-30T14:02:09;4.22;;;2.05;;
47365;SDS011;33105;47.964;7.982;2024-01-30T14:05:13;4.32;;;2.30;;
47365;SDS011;33105;47.964;7.982;2024-01-30T14:08:16;5.47;;;2.08;;
47365;SDS011;33105;47.964;7.982;2024-01-30T14:11:20;4.22;;;2.05;;
47365;SDS011;33105;47.964;7.982;2024-01-30T14:14:30;4.43;;;2.13;;
47365;SDS011;33105;47.964;7.982;2024-01-30T14:17:39;6.28;;;2.20;;
47365;SDS011;33105;47.964;7.982;2024-01-30T14:20:41;2.80;;;2.08;;
47365;SDS011;33105;47.964;7.982;2024-01-30T14:23:42;7.65;;;1.80;;
47365;SDS011;33105;47.964;7.982;2024-01-30T14:26:49;3.22;;;1.95;;
47365;SDS011;33105;47.964;7.982;2024-01-30T14:30:04;6.78;;;2.17;;
47365;SDS011;33105;47.964;7.982;2024-01-30T14:33:36;4.88;;;2.33;;
47365;SDS011;33105;47.964;7.982;2024-01-30T14:36:52;4.28;;;2.00;;
47365;SDS011;33105;47.964;7.982;2024-01-30T14:40:30;5.10;;;2.03;;
47365;SDS011;33105;47.964;7.982;2024-01-30T14:44:02;3.28;;;1.77;;
47365;SDS011;33105;47.964;7.982;2024-01-30T14:47:10;4.57;;;1.98;;
47365;SDS011;33105;47.964;7.982;2024-01-30T14:50:26;8.32;;;2.95;;
47365;SDS011;33105;47.964;7.982;2024-01-30T14:53:55;7.20;;;2.65;;
47365;SDS011;33105;47.964;7.982;2024-01-30T14:57:12;6.38;;;2.85;;
47365;SDS011;33105;47.964;7.982;2024-01-30T15:00:15;10.13;;;3.63;;
47365;SDS011;33105;47.964;7.982;2024-01-30T15:03:27;6.80;;;3.58;;
47365;SDS011;33105;47.964;7.982;2024-01-30T15:06:31;5.78;;;2.97;;
47365;SDS011;33105;47.964;7.982;2024-01-30T15:09:34;5.22;;;2.55;;
47365;SDS011;33105;47.964;7.982;2024-01-30T15:12:36;11.15;;;3.60;;
47365;SDS011;33105;47.964;7.982;2024-01-30T15:15:37;7.78;;;3.28;;
47365;SDS011;33105;47.964;7.982;2024-01-30T15:18:57;7.60;;;2.95;;
47365;SDS011;33105;47.964;7.982;2024-01-30T15:22:01;7.82;;;3.35;;
47365;SDS011;33105;47.964;7.982;2024-01-30T15:25:03;5.82;;;2.90;;
47365;SDS011;33105;47.964;7.982;2024-01-30T15:28:05;4.75;;;2.95;;
47365;SDS011;33105;47.964;7.982;2024-01-30T15:31:06;7.38;;;2.97;;
47365;SDS011;33105;47.964;7.982;2024-01-30T15:34:08;4.63;;;2.80;;
47365;SDS011;33105;47.964;7.982;2024-01-30T15:37:10;4.40;;;2.38;;
47365;SDS011;33105;47.964;7.982;2024-01-30T15:40:14;6.80;;;3.15;;
47365;SDS011;33105;47.964;7.982;2024-01-30T15:43:15;5.18;;;3.22;;
47365;SDS011;33105;47.964;7.982;2024-01-30T15:46:17;7.25;;;2.92;;
47365;SDS011;33105;47.964;7.982;2024-01-30T15:49:18;5.90;;;3.17;;
47365;SDS011;33105;47.964;7.982;2024-01-30T15:52:19;8.75;;;3.40;;
47365;SDS011;33105;47.964;7.982;2024-01-30T15:55:20;6.05;;;3.55;;
47365;SDS011;33105;47.964;7.982;2024-01-30T15:58:22;6.82;;;3.03;;
47365;SDS011;33105;47.964;7.982;2024-01-30T16:01:23;7.00;;;3.10;;
47365;SDS011;33105;47.964;7.982;2024-01-30T16:04:24;9.43;;;3.25;;
47365;SDS011;33105;47.964;7.982;2024-01-30T16:07:25;9.63;;;3.58;;
47365;SDS011;33105;47.964;7.982;2024-01-30T16:10:27;6.68;;;3.25;;
47365;SDS011;33105;47.964;7.982;2024-01-30T16:13:28;4.45;;;3.10;;
47365;SDS011;33105;47.964;7.982;2024-01-30T16:16:29;6.53;;;3.15;;
47365;SDS011;33105;47.964;7.982;2024-01-30T16:19:31;4.82;;;2.70;;
47365;SDS011;33105;47.964;7.982;2024-01-30T16:22:33;5.05;;;2.90;;
47365;SDS011;33105;47.964;7.982;2024-01-30T16:25:36;6.07;;;2.97;;
47365;SDS011;33105;47.964;7.982;2024-01-30T16:28:37;6.05;;;2.97;;
47365;SDS011;33105;47.964;7.982;2024-01-30T16:31:39;4.45;;;2.47;;
47365;SDS011;33105;47.964;7.982;2024-01-30T16:34:40;5.68;;;2.70;;
47365;SDS011;33105;47.964;7.982;2024-01-30T16:37:42;6.55;;;2.95;;
47365;SDS011;33105;47.964;7.982;2024-01-30T16:40:44;6.70;;;2.90;;
47365;SDS011;33105;47.964;7.982;2024-01-30T16:43:45;6.60;;;3.08;;
47365;SDS011;33105;47.964;7.982;2024-01-30T16:46:47;5.47;;;2.95;;
47365;SDS011;33105;47.964;7.982;2024-01-30T16:49:48;7.90;;;5.57;;
47365;SDS011;33105;47.964;7.982;2024-01-30T16:52:50;9.30;;;5.30;;
47365;SDS011;33105;47.964;7.982;2024-01-30T16:55:51;5.57;;;4.00;;
47365;SDS011;33105;47.964;7.982;2024-01-30T16:58:53;7.75;;;4.35;;
47365;SDS011;33105;47.964;7.982;2024-01-30T17:01:54;6.15;;;3.97;;
47365;SDS011;33105;47.964;7.982;2024-01-30T17:04:55;4.82;;;2.55;;
47365;SDS011;33105;47.964;7.982;2024-01-30T17:07:59;5.55;;;2.67;;
47365;SDS011;33105;47.964;7.982;2024-01-30T17:11:05;3.65;;;2.58;;
47365;SDS011;33105;47.964;7.982;2024-01-30T17:14:06;6.78;;;4.50;;
47365;SDS011;33105;47.964;7.982;2024-01-30T17:17:09;5.57;;;3.80;;
47365;SDS011;33105;47.964;7.982;2024-01-30T17:20:10;7.00;;;4.00;;
47365;SDS011;33105;47.964;7.982;2024-01-30T17:23:12;6.28;;;4.05;;
47365;SDS011;33105;47.964;7.982;2024-01-30T17:26:13;6.72;;;4.68;;
47365;SDS011;33105;47.964;7.982;2024-01-30T17:29:15;8.02;;;4.82;;
47365;SDS011;33105;47.964;7.982;2024-01-30T17:32:16;7.70;;;5.00;;
47365;SDS011;33105;47.964;7.982;2024-01-30T17:35:17;8.98;;;3.05;;
47365;SDS011;33105;47.964;7.982;2024-01-30T17:38:19;9.48;;;4.10;;
47365;SDS011;33105;47.964;7.982;2024-01-30T17:41:20;13.48;;;7.65;;
47365;SDS011;33105;47.964;7.982;2024-01-30T17:44:22;8.20;;;4.45;;
47365;SDS011;33105;47.964;7.982;2024-01-30T17:47:23;8.60;;;3.72;;
47365;SDS011;33105;47.964;7.982;2024-01-30T17:50:25;6.25;;;3.67;;
47365;SDS011;33105;47.964;7.982;2024-01-30T17:53:26;5.03;;;3.40;;
47365;SDS011;33105;47.964;7.982;2024-01-30T17:56:27;6.63;;;3.75;;
47365;SDS011;33105;47.964;7.982;2024-01-30T17:59:28;5.88;;;2.83;;
47365;SDS011;33105;47.964;7.982;2024-01-30T18:02:30;8.15;;;4.32;;
47365;SDS011;33105;47.964;7.982;2024-01-30T18:05:31;9.35;;;3.72;;
47365;SDS011;33105;47.964;7.982;2024-01-30T18:08:32;10.07;;;4.43;;
47365;SDS011;33105;47.964;7.982;2024-01-30T18:11:34;8.32;;;3.33;;
47365;SDS011;33105;47.964;7.982;2024-01-30T18:14:35;6.18;;;3.72;;
47365;SDS011;33105;47.964;7.982;2024-01-30T18:17:36;8.05;;;3.40;;
47365;SDS011;33105;47.964;7.982;2024-01-30T18:20:38;5.63;;;3.53;;
47365;SDS011;33105;47.964;7.982;2024-01-30T18:23:40;5.80;;;2.95;;
47365;SDS011;33105;47.964;7.982;2024-01-30T18:26:42;6.88;;;3.25;;
47365;SDS011;33105;47.964;7.982;2024-01-30T18:29:43;7.03;;;3.97;;
47365;SDS011;33105;47.964;7.982;2024-01-30T18:32:44;7.90;;;4.53;;
47365;SDS011;33105;47.964;7.982;2024-01-30T18:35:49;9.93;;;5.10;;
47365;SDS011;33105;47.964;7.982;2024-01-30T18:38:50;7.13;;;3.95;;
47365;SDS011;33105;47.964;7.982;2024-01-30T18:41:52;6.80;;;3.63;;
47365;SDS011;33105;47.964;7.982;2024-01-30T18:44:53;9.68;;;5.07;;
47365;SDS011;33105;47.964;7.982;2024-01-30T18:47:54;4.95;;;3.60;;
47365;SDS011;33105;47.964;7.982;2024-01-30T18:50:56;5.10;;;3.28;;
47365;SDS011;33105;47.964;7.982;2024-01-30T18:53:57;7.80;;;3.83;;
47365;SDS011;33105;47.964;7.982;2024-01-30T18:56:58;6.45;;;3.40;;
47365;SDS011;33105;47.964;7.982;2024-01-30T19:00:03;7.10;;;3.80;;
47365;SDS011;33105;47.964;7.982;2024-01-30T19:03:10;6.55;;;4.00;;
47365;SDS011;33105;47.964;7.982;2024-01-30T19:06:12;6.22;;;4.43;;
47365;SDS011;33105;47.964;7.982;2024-01-30T19:09:17;4.05;;;3.33;;
47365;SDS011;33105;47.964;7.982;2024-01-30T19:12:19;10.43;;;4.90;;
47365;SDS011;33105;47.964;7.982;2024-01-30T19:15:20;8.73;;;3.65;;
47365;SDS011;33105;47.964;7.982;2024-01-30T19:18:22;7.03;;;4.10;;
47365;SDS011;33105;47.964;7.982;2024-01-30T19:21:23;4.90;;;3.60;;
47365;SDS011;33105;47.964;7.982;2024-01-30T19:24:24;4.95;;;3.20;;
47365;SDS011;33105;47.964;7.982;2024-01-30T19:27:27;5.45;;;3.05;;
47365;SDS011;33105;47.964;7.982;2024-01-30T19:30:28;5.80;;;3.28;;
47365;SDS011;33105;47.964;7.982;2024-01-30T19:33:33;6.85;;;3.67;;
47365;SDS011;33105;47.964;7.982;2024-01-30T19:36:35;6.18;;;3.17;;
47365;SDS011;33105;47.964;7.982;2024-01-30T19:39:40;5.65;;;3.00;;
47365;SDS011;33105;47.964;7.982;2024-01-30T19:42:44;5.90;;;3.50;;
47365;SDS011;33105;47.964;7.982;2024-01-30T19:45:46;7.20;;;4.85;;
47365;SDS011;33105;47.964;7.982;2024-01-30T19:48:47;6.05;;;4.30;;
47365;SDS011;33105;47.964;7.982;2024-01-30T19:51:51;7.28;;;4.78;;
47365;SDS011;33105;47.964;7.982;2024-01-30T19:54:53;5.80;;;3.40;;
47365;SDS011;33105;47.964;7.982;2024-01-30T19:57:54;8.43;;;3.88;;
47365;SDS011;33105;47.964;7.982;2024-01-30T20:00:57;7.55;;;4.40;;
47365;SDS011;33105;47.964;7.982;2024-01-30T20:03:58;7.38;;;4.82;;
47365;SDS011;33105;47.964;7.982;2024-01-30T20:07:01;11.95;;;4.97;;